createdAt,value
2017-12-01T00:01:11.382Z,4.40
2017-12-01T00:03:40.069Z,3.87
2017-12-01T00:06:09.357Z,3.00
2017-12-01T00:08:36.780Z,7.43
2017-12-01T00:11:03.633Z,3.10
2017-12-01T00:13:29.867Z,6.40
2017-12-01T00:15:56.081Z,2.63
2017-12-01T00:18:23.622Z,5.20
2017-12-01T00:20:49.882Z,3.77
2017-12-01T00:23:16.139Z,3.23
2017-12-01T00:25:42.482Z,4.40
2017-12-01T00:28:09.849Z,2.70
2017-12-01T00:30:36.204Z,25.43
2017-12-01T00:33:02.832Z,6.13
2017-12-01T00:35:29.103Z,3.03
2017-12-01T00:37:55.464Z,4.80
2017-12-01T00:40:21.708Z,5.77
2017-12-01T00:42:47.977Z,15.33
2017-12-01T00:45:16.210Z,3.83
2017-12-01T00:47:42.577Z,8.33
2017-12-01T00:50:10.255Z,3.10
2017-12-01T00:52:37.636Z,6.53
2017-12-01T00:55:05.184Z,3.67
2017-12-01T00:57:33.403Z,5.03
2017-12-01T00:59:59.927Z,5.73
2017-12-01T01:02:27.116Z,2.87
2017-12-01T01:04:55.273Z,5.03
2017-12-01T01:07:21.574Z,5.30
2017-12-01T01:09:47.860Z,12.33
2017-12-01T01:12:14.098Z,5.63
2017-12-01T01:14:40.314Z,4.27
2017-12-01T01:17:06.728Z,15.67
2017-12-01T01:19:32.943Z,14.63
2017-12-01T01:21:59.136Z,7.63
2017-12-01T01:24:25.384Z,16.73
2017-12-01T01:26:51.573Z,6.80
2017-12-01T01:29:17.731Z,3.30
2017-12-01T01:31:44.043Z,4.80
2017-12-01T01:34:10.211Z,8.13
2017-12-01T01:36:36.405Z,6.50
2017-12-01T01:39:02.866Z,4.07
2017-12-01T01:41:29.314Z,4.00
2017-12-01T01:43:55.535Z,3.07
2017-12-01T01:46:21.945Z,4.10
2017-12-01T01:48:48.176Z,3.83
2017-12-01T01:51:14.361Z,2.80
2017-12-01T01:53:40.618Z,2.67
2017-12-01T01:56:06.961Z,6.93
2017-12-01T01:58:33.179Z,5.17
2017-12-01T02:00:59.794Z,4.90
2017-12-01T02:03:25.972Z,2.70
2017-12-01T02:05:52.401Z,3.10
2017-12-01T02:08:18.902Z,4.93
2017-12-01T02:10:51.108Z,2.43
2017-12-01T02:13:17.345Z,3.60
2017-12-01T02:15:43.536Z,5.27
2017-12-01T02:18:09.748Z,2.50
2017-12-01T02:20:36.145Z,2.20
2017-12-01T02:23:02.392Z,4.00
2017-12-01T02:25:28.634Z,2.90
2017-12-01T02:27:55.145Z,5.70
2017-12-01T02:30:21.346Z,3.50
2017-12-01T02:32:47.554Z,6.43
2017-12-01T02:35:13.819Z,2.30
2017-12-01T02:37:40.067Z,3.47
2017-12-01T02:40:06.264Z,1.80
2017-12-01T02:42:32.542Z,2.80
2017-12-01T02:44:58.846Z,5.90
2017-12-01T02:47:25.048Z,2.00
2017-12-01T02:49:51.317Z,9.10
2017-12-01T02:52:17.656Z,3.50
2017-12-01T02:54:49.010Z,3.97
2017-12-01T02:57:15.203Z,3.00
2017-12-01T02:59:41.571Z,2.20
2017-12-01T03:02:08.068Z,2.87
2017-12-01T03:04:34.288Z,4.20
2017-12-01T03:07:00.661Z,3.57
2017-12-01T03:09:27.096Z,3.33
2017-12-01T03:11:53.309Z,2.47
2017-12-01T03:14:22.301Z,4.27
2017-12-01T03:16:48.564Z,3.50
2017-12-01T03:19:14.782Z,8.80
2017-12-01T03:21:41.112Z,1.87
2017-12-01T03:24:07.401Z,2.50
2017-12-01T03:26:33.695Z,2.40
2017-12-01T03:28:59.974Z,2.60
2017-12-01T03:31:26.187Z,3.27
2017-12-01T03:33:52.413Z,1.60
2017-12-01T03:36:18.757Z,4.20
2017-12-01T03:38:45.222Z,2.40
2017-12-01T03:41:11.417Z,3.50
2017-12-01T03:43:37.681Z,2.57
2017-12-01T03:46:03.994Z,3.53
2017-12-01T03:48:30.431Z,2.60
2017-12-01T03:50:56.683Z,3.13
2017-12-01T03:53:22.905Z,2.57
2017-12-01T03:55:49.119Z,2.20
2017-12-01T03:58:15.364Z,2.73
2017-12-01T04:00:41.559Z,2.80
2017-12-01T04:03:07.813Z,1.90
2017-12-01T04:05:34.077Z,4.23
2017-12-01T04:08:00.302Z,3.30
2017-12-01T04:10:26.496Z,3.00
2017-12-01T04:12:52.862Z,3.90
2017-12-01T04:15:19.065Z,2.07
2017-12-01T04:17:45.267Z,1.80
2017-12-01T04:20:11.768Z,2.40
2017-12-01T04:22:37.991Z,2.63
2017-12-01T04:25:04.201Z,4.93
2017-12-01T04:27:30.526Z,3.37
2017-12-01T04:29:56.737Z,1.83
2017-12-01T04:32:22.945Z,1.67
2017-12-01T04:34:49.195Z,2.37
2017-12-01T04:37:15.391Z,2.93
2017-12-01T04:39:41.591Z,2.00
2017-12-01T04:42:07.840Z,8.43
2017-12-01T04:44:34.301Z,17.13
2017-12-01T04:47:00.520Z,2.00
2017-12-01T04:49:26.795Z,2.23
2017-12-01T04:51:53.244Z,3.83
2017-12-01T04:54:19.439Z,1.80
2017-12-01T04:56:45.945Z,1.70
2017-12-01T04:59:12.165Z,1.70
2017-12-01T05:01:38.610Z,5.33
2017-12-01T05:04:10.796Z,3.43
2017-12-01T05:06:37.244Z,2.60
2017-12-01T05:11:35.551Z,1.63
2017-12-01T05:14:01.752Z,2.53
2017-12-01T05:16:27.942Z,2.03
2017-12-01T05:18:54.269Z,2.10
2017-12-01T05:21:20.496Z,2.03
2017-12-01T05:23:46.704Z,3.90
2017-12-01T05:26:13.065Z,3.57
2017-12-01T05:28:39.264Z,2.93
2017-12-01T05:31:05.491Z,1.57
2017-12-01T05:33:31.855Z,3.43
2017-12-01T05:35:58.052Z,4.30
2017-12-01T05:38:24.504Z,2.07
2017-12-01T05:40:50.771Z,2.80
2017-12-01T05:43:16.980Z,2.03
2017-12-01T05:45:43.219Z,2.67
2017-12-01T05:48:09.461Z,2.80
2017-12-01T05:50:35.908Z,2.70
2017-12-01T05:53:02.126Z,2.00
2017-12-01T05:55:28.481Z,2.07
2017-12-01T05:57:54.946Z,1.97
2017-12-01T06:00:21.190Z,2.47
2017-12-01T06:02:47.966Z,1.70
2017-12-01T06:05:17.324Z,11.00
2017-12-01T06:07:45.254Z,2.53
2017-12-01T06:10:13.759Z,2.67
2017-12-01T06:12:40.102Z,2.07
2017-12-01T06:15:06.540Z,2.20
2017-12-01T06:17:32.898Z,2.70
2017-12-01T06:19:59.105Z,2.30
2017-12-01T06:22:25.334Z,6.60
2017-12-01T06:24:51.689Z,5.43
2017-12-01T06:27:17.912Z,2.47
2017-12-01T06:29:44.104Z,6.93
2017-12-01T06:32:10.514Z,7.30
2017-12-01T06:34:36.735Z,2.83
2017-12-01T06:37:03.091Z,12.50
2017-12-01T06:39:29.423Z,14.73
2017-12-01T06:41:55.940Z,8.50
2017-12-01T06:44:22.184Z,6.83
2017-12-01T06:46:48.651Z,8.30
2017-12-01T06:49:15.079Z,3.53
2017-12-01T06:51:41.300Z,9.50
2017-12-01T06:54:07.582Z,3.80
2017-12-01T06:56:33.889Z,2.90
2017-12-01T06:59:00.380Z,8.00
2017-12-01T07:03:59.573Z,9.10
2017-12-01T07:06:26.054Z,3.60
2017-12-01T07:08:52.248Z,3.03
2017-12-01T07:11:18.423Z,3.20
2017-12-01T07:13:44.672Z,2.90
2017-12-01T07:16:10.865Z,2.70
2017-12-01T07:18:37.301Z,8.50
2017-12-01T07:21:03.634Z,3.00
2017-12-01T07:23:29.843Z,10.83
2017-12-01T07:25:56.108Z,8.17
2017-12-01T07:28:22.666Z,9.23
2017-12-01T07:30:48.873Z,24.57
2017-12-01T07:33:15.105Z,12.10
2017-12-01T07:35:41.438Z,27.60
2017-12-01T07:38:07.675Z,17.83
2017-12-01T07:40:34.254Z,19.13
2017-12-01T07:43:00.527Z,27.37
2017-12-01T07:45:28.680Z,14.90
2017-12-01T07:47:54.924Z,14.07
2017-12-01T07:50:21.532Z,9.63
2017-12-01T07:52:47.890Z,15.20
2017-12-01T07:55:14.198Z,24.77
2017-12-01T07:57:40.496Z,20.50
2017-12-01T08:00:06.733Z,14.57
2017-12-01T08:02:33.081Z,8.07
2017-12-01T08:04:59.440Z,5.73
2017-12-01T08:07:25.904Z,8.60
2017-12-01T08:09:52.137Z,3.33
2017-12-01T08:12:18.426Z,4.83
2017-12-01T08:14:44.753Z,5.30
2017-12-01T08:17:23.471Z,5.07
2017-12-01T08:19:49.712Z,10.93
2017-12-01T08:22:28.504Z,12.60
2017-12-01T08:25:07.376Z,10.70
2017-12-01T08:27:33.639Z,17.13
2017-12-01T08:29:59.916Z,2.87
2017-12-01T08:32:26.397Z,2.93
2017-12-01T08:34:52.951Z,8.03
2017-12-01T08:37:19.167Z,6.60
2017-12-01T08:39:45.447Z,7.13
2017-12-01T08:42:11.954Z,5.17
2017-12-01T08:44:38.141Z,5.67
2017-12-01T08:47:04.386Z,9.00
2017-12-01T08:49:30.725Z,5.70
2017-12-01T08:51:57.168Z,12.60
2017-12-01T08:54:23.380Z,6.37
2017-12-01T08:56:49.607Z,3.30
2017-12-01T08:59:15.837Z,5.07
2017-12-01T09:01:42.086Z,5.80
2017-12-01T09:04:08.319Z,3.17
2017-12-01T09:06:34.516Z,7.33
2017-12-01T09:09:00.967Z,8.80
2017-12-01T09:11:27.216Z,8.00
2017-12-01T09:13:53.452Z,15.87
2017-12-01T09:16:19.892Z,8.90
2017-12-01T09:18:46.143Z,4.70
2017-12-01T09:21:12.551Z,8.20
2017-12-01T09:23:39.150Z,2.80
2017-12-01T09:26:05.647Z,2.60
2017-12-01T09:28:32.118Z,6.07
2017-12-01T09:30:58.300Z,3.10
2017-12-01T09:33:24.579Z,3.60
2017-12-01T09:35:50.752Z,3.30
2017-12-01T09:38:16.932Z,8.03
2017-12-01T09:40:43.421Z,2.57
2017-12-01T09:43:09.641Z,6.20
2017-12-01T09:45:36.184Z,2.07
2017-12-01T09:48:02.432Z,2.57
2017-12-01T09:50:28.613Z,9.80
2017-12-01T09:52:54.872Z,4.13
2017-12-01T09:55:22.560Z,3.97
2017-12-01T09:57:48.855Z,2.13
2017-12-01T10:00:15.066Z,4.23
2017-12-01T10:02:41.321Z,4.27
2017-12-01T10:05:07.509Z,3.30
2017-12-01T10:07:33.945Z,6.83
2017-12-01T10:10:00.261Z,2.40
2017-12-01T10:12:26.449Z,3.23
2017-12-01T10:14:53.436Z,4.03
2017-12-01T10:17:19.784Z,6.50
2017-12-01T10:19:45.977Z,5.03
2017-12-01T10:22:12.205Z,3.00
2017-12-01T10:24:38.568Z,3.90
2017-12-01T10:27:04.764Z,3.70
2017-12-01T10:29:30.944Z,3.80
2017-12-01T10:31:57.183Z,3.13
2017-12-01T10:34:23.377Z,4.40
2017-12-01T10:36:49.556Z,3.13
2017-12-01T10:39:15.808Z,3.87
2017-12-01T10:41:42.000Z,2.57
2017-12-01T10:44:08.221Z,3.13
2017-12-01T10:46:34.504Z,3.00
2017-12-01T10:49:00.927Z,3.93
2017-12-01T10:51:27.116Z,6.13
2017-12-01T10:53:53.443Z,2.53
2017-12-01T10:56:19.647Z,6.10
2017-12-01T10:58:45.840Z,2.60
2017-12-01T11:01:12.166Z,6.40
2017-12-01T11:03:38.509Z,3.67
2017-12-01T11:06:04.688Z,15.77
2017-12-01T11:08:30.987Z,6.80
2017-12-01T11:10:57.167Z,3.50
2017-12-01T11:13:23.336Z,2.97
2017-12-01T11:15:49.950Z,2.07
2017-12-01T11:18:16.254Z,2.63
2017-12-01T11:20:42.456Z,2.27
2017-12-01T11:23:08.743Z,3.70
2017-12-01T11:25:35.093Z,6.77
2017-12-01T11:28:01.292Z,2.07
2017-12-01T11:30:27.556Z,4.40
2017-12-01T11:32:53.743Z,3.63
2017-12-01T11:35:20.188Z,2.40
2017-12-01T11:37:46.503Z,4.20
2017-12-01T11:40:12.973Z,2.90
2017-12-01T11:42:39.126Z,2.93
2017-12-01T11:45:05.398Z,2.40
2017-12-01T11:47:31.669Z,5.73
2017-12-01T11:49:57.860Z,2.70
2017-12-01T11:52:24.108Z,3.93
2017-12-01T11:54:50.301Z,2.67
2017-12-01T11:57:16.504Z,2.90
2017-12-01T11:59:43.071Z,2.63
2017-12-01T12:02:09.247Z,1.50
2017-12-01T12:04:35.466Z,3.20
2017-12-01T12:07:01.782Z,6.97
2017-12-01T12:09:27.993Z,4.50
2017-12-01T12:11:54.426Z,3.10
2017-12-01T12:14:20.673Z,2.50
2017-12-01T12:16:47.106Z,8.80
2017-12-01T12:19:13.294Z,5.10
2017-12-01T12:21:39.614Z,2.37
2017-12-01T12:24:05.831Z,3.97
2017-12-01T12:26:32.058Z,3.93
2017-12-01T12:28:58.540Z,4.73
2017-12-01T12:31:24.783Z,2.63
2017-12-01T12:33:51.018Z,4.17
2017-12-01T12:36:17.339Z,6.43
2017-12-01T12:38:43.545Z,4.60
2017-12-01T12:41:10.078Z,4.73
2017-12-01T12:43:36.414Z,8.70
2017-12-01T12:46:02.823Z,7.87
2017-12-01T12:48:29.252Z,6.10
2017-12-01T12:50:55.834Z,3.83
2017-12-01T12:53:22.075Z,2.77
2017-12-01T12:55:48.256Z,2.77
2017-12-01T12:58:14.552Z,2.37
2017-12-01T13:00:40.911Z,11.87
2017-12-01T13:03:07.156Z,25.67
2017-12-01T13:05:33.495Z,27.93
2017-12-01T13:07:59.717Z,16.03
2017-12-01T13:10:25.955Z,16.87
2017-12-01T13:12:52.258Z,20.93
2017-12-01T13:15:18.524Z,7.33
2017-12-01T13:17:44.788Z,15.03
2017-12-01T13:20:11.171Z,13.60
2017-12-01T13:22:37.396Z,6.27
2017-12-01T13:25:03.616Z,12.13
2017-12-01T13:27:29.865Z,13.83
2017-12-01T13:29:56.064Z,35.63
2017-12-01T13:32:22.352Z,35.17
2017-12-01T13:34:48.723Z,38.03
2017-12-01T13:37:14.961Z,52.90
2017-12-01T13:39:41.150Z,17.50
2017-12-01T13:42:07.499Z,23.67
2017-12-01T13:44:33.681Z,33.43
2017-12-01T13:47:00.242Z,37.03
2017-12-01T13:49:32.661Z,14.60
2017-12-01T13:51:58.853Z,19.57
2017-12-01T13:54:25.036Z,15.77
2017-12-01T13:56:51.363Z,18.70
2017-12-01T13:59:17.577Z,26.00
2017-12-01T14:01:43.756Z,24.00
2017-12-01T14:04:10.014Z,11.70
2017-12-01T14:06:36.435Z,18.20
2017-12-01T14:09:02.728Z,22.33
2017-12-01T14:11:28.969Z,17.70
2017-12-01T14:13:55.220Z,22.70
2017-12-01T14:16:21.480Z,7.47
2017-12-01T14:18:47.736Z,18.77
2017-12-01T14:21:13.935Z,21.37
2017-12-01T14:23:40.134Z,16.00
2017-12-01T14:26:06.543Z,13.73
2017-12-01T14:28:32.725Z,11.07
2017-12-01T14:30:58.918Z,23.80
2017-12-01T14:33:25.182Z,7.43
2017-12-01T14:35:51.409Z,11.40
2017-12-01T14:38:17.596Z,9.53
2017-12-01T14:40:43.846Z,19.80
2017-12-01T14:43:10.101Z,12.70
2017-12-01T14:45:36.279Z,9.73
2017-12-01T14:48:02.772Z,10.03
2017-12-01T14:50:28.945Z,15.07
2017-12-01T14:52:55.135Z,12.27
2017-12-01T14:55:21.381Z,10.03
2017-12-01T14:57:47.873Z,10.43
2017-12-01T15:00:14.094Z,6.43
2017-12-01T15:02:40.442Z,10.90
2017-12-01T15:05:06.627Z,12.23
2017-12-01T15:07:32.832Z,13.23
2017-12-01T15:09:59.155Z,7.63
2017-12-01T15:12:25.341Z,7.33
2017-12-01T15:14:51.528Z,14.40
2017-12-01T15:17:18.007Z,9.90
2017-12-01T15:19:44.193Z,11.30
2017-12-01T15:22:11.308Z,11.43
2017-12-01T15:24:37.560Z,10.50
2017-12-01T15:27:03.753Z,10.17
2017-12-01T15:29:29.937Z,7.63
2017-12-01T15:31:56.404Z,8.60
2017-12-01T15:34:23.240Z,7.40
2017-12-01T15:36:49.413Z,10.10
2017-12-01T15:39:15.665Z,7.67
2017-12-01T15:41:41.923Z,7.70
2017-12-01T15:44:08.122Z,10.57
2017-12-01T15:46:34.450Z,19.03
2017-12-01T15:49:00.631Z,9.63
2017-12-01T15:51:26.821Z,10.70
2017-12-01T15:53:53.167Z,9.40
2017-12-01T15:56:19.391Z,4.27
2017-12-01T15:58:45.567Z,8.27
2017-12-01T16:01:11.813Z,5.10
2017-12-01T16:03:38.813Z,8.30
2017-12-01T16:06:05.049Z,5.60
2017-12-01T16:08:31.290Z,20.03
2017-12-01T16:10:57.635Z,5.40
2017-12-01T16:13:24.062Z,7.67
2017-12-01T16:15:50.515Z,6.97
2017-12-01T16:18:16.869Z,5.63
2017-12-01T16:20:43.088Z,6.20
2017-12-01T16:23:09.360Z,12.53
2017-12-01T16:25:35.617Z,8.83
2017-12-01T16:28:01.820Z,7.83
2017-12-01T16:30:28.056Z,4.20
2017-12-01T16:33:00.226Z,6.80
2017-12-01T16:35:20.560Z,4.73
2017-12-01T16:37:46.838Z,4.17
2017-12-01T16:40:13.393Z,7.00
2017-12-01T16:42:39.579Z,5.90
2017-12-01T16:45:05.764Z,7.20
2017-12-01T16:47:32.010Z,8.80
2017-12-01T16:49:58.208Z,6.10
2017-12-01T16:52:24.400Z,4.50
2017-12-01T16:54:50.961Z,7.23
2017-12-01T16:57:17.164Z,6.57
2017-12-01T16:59:43.361Z,6.83
2017-12-01T17:02:09.601Z,13.97
2017-12-01T17:04:35.952Z,7.70
2017-12-01T17:07:02.231Z,3.03
2017-12-01T17:09:28.459Z,3.93
2017-12-01T17:11:56.020Z,6.03
2017-12-01T17:14:22.223Z,6.23
2017-12-01T17:16:48.437Z,4.57
2017-12-01T17:19:14.774Z,3.87
2017-12-01T17:21:40.985Z,3.53
2017-12-01T17:24:07.165Z,5.37
2017-12-01T17:26:33.501Z,5.73
2017-12-01T17:28:59.951Z,4.23
2017-12-01T17:31:26.141Z,3.00
2017-12-01T17:33:52.642Z,4.33
2017-12-01T17:36:18.889Z,4.43
2017-12-01T17:38:45.091Z,5.40
2017-12-01T17:41:11.437Z,10.47
2017-12-01T17:43:37.635Z,5.37
2017-12-01T17:46:04.083Z,5.40
2017-12-01T17:48:30.356Z,2.73
2017-12-01T17:50:56.569Z,6.63
2017-12-01T17:53:22.770Z,3.03
2017-12-01T17:55:49.017Z,4.63
2017-12-01T17:58:15.301Z,4.07
2017-12-01T18:00:41.522Z,8.93
2017-12-01T18:03:07.776Z,3.67
2017-12-01T18:05:33.967Z,4.93
2017-12-01T18:08:00.164Z,3.60
2017-12-01T18:10:26.406Z,3.50
2017-12-01T18:12:52.606Z,3.70
2017-12-01T18:15:18.787Z,4.57
2017-12-01T18:17:45.101Z,5.53
2017-12-01T18:20:11.301Z,5.40
2017-12-01T18:22:37.709Z,3.07
2017-12-01T18:25:03.964Z,4.90
2017-12-01T18:27:30.161Z,5.20
2017-12-01T18:29:56.343Z,9.50
2017-12-01T18:32:22.590Z,4.83
2017-12-01T18:34:48.830Z,4.20
2017-12-01T18:37:15.200Z,3.90
2017-12-01T18:39:41.568Z,4.20
2017-12-01T18:42:07.845Z,3.33
2017-12-01T18:44:34.103Z,3.10
2017-12-01T18:47:00.473Z,4.53
2017-12-01T18:49:26.717Z,3.10
2017-12-01T18:51:52.956Z,2.40
2017-12-01T18:54:19.346Z,3.30
2017-12-01T18:56:45.823Z,3.73
2017-12-01T18:59:12.046Z,3.80
2017-12-01T19:01:38.432Z,3.00
2017-12-01T19:04:04.678Z,5.87
2017-12-01T19:06:31.017Z,3.37
2017-12-01T19:08:57.266Z,5.73
2017-12-01T19:11:23.461Z,5.17
2017-12-01T19:13:49.645Z,6.57
2017-12-01T19:16:15.896Z,3.27
2017-12-01T19:18:42.114Z,3.73
2017-12-01T19:21:08.353Z,4.53
2017-12-01T19:23:34.594Z,4.03
2017-12-01T19:26:00.851Z,3.97
2017-12-01T19:28:27.039Z,5.17
2017-12-01T19:30:53.272Z,6.00
2017-12-01T19:33:19.481Z,9.50
2017-12-01T19:35:45.663Z,2.50
2017-12-01T19:38:11.902Z,3.87
2017-12-01T19:40:38.093Z,3.27
2017-12-01T19:43:04.510Z,2.87
2017-12-01T19:45:30.843Z,3.10
2017-12-01T19:47:57.073Z,4.20
2017-12-01T19:50:23.274Z,3.50
2017-12-01T19:52:49.591Z,7.80
2017-12-01T19:55:15.791Z,2.70
2017-12-01T19:57:42.224Z,2.57
2017-12-01T20:00:08.560Z,5.33
2017-12-01T20:02:34.774Z,2.20
2017-12-01T20:05:00.965Z,4.20
2017-12-01T20:07:27.216Z,4.50
2017-12-01T20:09:53.416Z,2.33
2017-12-01T20:12:19.623Z,2.50
2017-12-01T20:14:45.881Z,3.40
2017-12-01T20:17:12.073Z,3.33
2017-12-01T20:19:38.496Z,2.80
2017-12-01T20:22:04.730Z,4.13
2017-12-01T20:24:31.164Z,7.00
2017-12-01T20:26:57.598Z,2.90
2017-12-01T20:29:23.938Z,3.50
2017-12-01T20:31:50.145Z,2.70
2017-12-01T20:34:16.395Z,2.13
2017-12-01T20:36:42.612Z,2.87
2017-12-01T20:39:08.841Z,2.80
2017-12-01T20:41:35.027Z,4.53
2017-12-01T20:44:01.589Z,2.30
2017-12-01T20:46:27.781Z,2.50
2017-12-01T20:48:53.986Z,2.57
2017-12-01T20:51:20.238Z,3.03
2017-12-01T20:53:46.439Z,2.80
2017-12-01T20:56:12.641Z,1.87
2017-12-01T20:58:39.064Z,5.00
2017-12-01T21:01:05.259Z,2.40
2017-12-01T21:03:31.454Z,3.23
2017-12-01T21:05:57.794Z,4.23
2017-12-01T21:08:24.277Z,1.93
2017-12-01T21:10:50.469Z,2.50
2017-12-01T21:13:17.054Z,2.93
2017-12-01T21:15:43.255Z,2.23
2017-12-01T21:18:09.467Z,3.30
2017-12-01T21:20:35.784Z,2.33
2017-12-01T21:23:01.972Z,3.53
2017-12-01T21:25:28.181Z,2.30
2017-12-01T21:27:54.522Z,2.23
2017-12-01T21:30:20.964Z,2.27
2017-12-01T21:32:47.177Z,3.97
2017-12-01T21:35:13.488Z,1.80
2017-12-01T21:37:39.827Z,2.37
2017-12-01T21:40:06.065Z,2.60
2017-12-01T21:45:04.190Z,2.60
2017-12-01T21:47:30.657Z,3.17
2017-12-01T21:49:57.208Z,1.90
2017-12-01T21:52:23.397Z,2.20
2017-12-01T21:54:49.597Z,4.23
2017-12-01T21:57:16.127Z,4.10
2017-12-01T21:59:42.298Z,2.43
2017-12-01T22:02:08.489Z,2.43
2017-12-01T22:04:34.836Z,3.03
2017-12-01T22:07:01.060Z,2.50
2017-12-01T22:09:27.261Z,2.10
2017-12-01T22:11:53.587Z,2.50
2017-12-01T22:14:19.814Z,3.10
2017-12-01T22:16:46.041Z,2.53
2017-12-01T22:19:12.274Z,1.67
2017-12-01T22:21:38.516Z,1.70
2017-12-01T22:24:04.707Z,1.80
2017-12-01T22:26:31.016Z,2.13
2017-12-01T22:28:57.243Z,1.70
2017-12-01T22:31:23.674Z,2.60
2017-12-01T22:33:50.004Z,3.23
2017-12-01T22:36:16.210Z,2.97
2017-12-01T22:38:42.405Z,2.40
2017-12-01T22:41:08.998Z,2.43
2017-12-01T22:43:35.295Z,2.07
2017-12-01T22:46:01.488Z,3.03
2017-12-01T22:48:28.040Z,1.97
2017-12-01T22:50:54.224Z,3.40
2017-12-01T22:53:20.449Z,1.93
2017-12-01T22:55:46.684Z,2.23
2017-12-01T22:58:13.112Z,2.40
2017-12-01T23:00:39.297Z,1.80
2017-12-01T23:03:05.538Z,1.90
2017-12-01T23:05:31.717Z,3.23
2017-12-01T23:07:57.908Z,2.20
2017-12-01T23:10:24.472Z,1.83
2017-12-01T23:12:50.694Z,3.70
2017-12-01T23:15:16.873Z,1.60
2017-12-01T23:17:43.320Z,3.77
2017-12-01T23:20:09.500Z,2.13
2017-12-01T23:22:36.133Z,2.30
2017-12-01T23:25:02.452Z,1.67
2017-12-01T23:27:28.630Z,2.57
2017-12-01T23:29:55.044Z,2.30
2017-12-01T23:32:21.290Z,2.37
2017-12-01T23:34:47.474Z,2.40
2017-12-01T23:37:13.655Z,1.87
2017-12-01T23:39:40.114Z,2.23
2017-12-01T23:42:06.319Z,2.20
2017-12-01T23:44:32.522Z,2.50
2017-12-01T23:46:58.832Z,1.70
2017-12-01T23:49:25.003Z,2.10
2017-12-01T23:51:51.191Z,2.37
2017-12-01T23:54:17.660Z,1.67
2017-12-01T23:56:43.878Z,1.90
2017-12-01T23:59:10.399Z,2.03
